Thunder radar more information blitzortung!


avis per Pluja more information rain snow radar


Visita la nostra xarxa de llocs de meteo:

Template documentation
and downloads

And another site



Rain From: 18-10-2018 10:00 Until: 16:59 warning for: Rain Level: Yellow info button

Pagina Historial Weather Underground text

Diari Resum Abril 17, 2016 Unitats:  Mètric    Imperial   Tant
« Previous Dia
SegĂźent Dia »
Diari Setmana Mensual Anual Personalitzada
  Maxima: Minima: Media:
Temperatura: -17.8 °C -11 °C -6.8 °C
Punt de rosada: -17.8 °C -17.4 °C -14.8 °C
Humitat: Humidity % 27 % 40 %
Wind Speed: 0 km/h 0 km/h 12.9 km/h
RĂ fegues de vent: 0 km/h - -
Vent:- - SW
Pression baro: 0 hPa 34198.6 hPa -
Precipitacions: 0 mm    
Historical Graphs
 
 
Dades de taula per Abril 17, 2016
Temps Temperatura Punt de rosada Pression baro Vent Wind Speed RĂ fegues de vent Humitat Rainfall Rate (Hourly)
-17.8 °C -17.8 °C 0 hPa Calm     Humidity % 0 mm
00:00 -8.7 °C -13.6 °C 34222.3 hPa West 6.3 km/h 7.6 km/h 56 % 0 mm
00:05 -8.7 °C -13.6 °C 34222.3 hPa SW 9 km/h 9 km/h 56 % 0 mm
00:10 -8.8 °C -13.7 °C 34222.3 hPa SW 9 km/h 9 km/h 56 % 0 mm
00:15 -8.8 °C -13.7 °C 34256.2 hPa SW 6.8 km/h 6.8 km/h 56 % 0 mm
00:20 -8.8 °C -13.7 °C 34256.2 hPa WSW 8 km/h   56 % 0 mm
00:30 -8.8 °C -13.7 °C 34256.2 hPa WSW 9 km/h 9 km/h 56 % 0 mm
00:40 -9.8 °C -13.4 °C 34222.3 hPa SW 7.7 km/h 7.7 km/h 65 % 0 mm
00:50 -9.8 °C -13.4 °C 34198.6 hPa WSW 5.1 km/h 7.7 km/h 65 % 0 mm
01:00 -9.8 °C -13.4 °C 34222.3 hPa WSW 7.7 km/h 7.7 km/h 65 % 0 mm
01:10 -9.9 °C -13.4 °C 34222.3 hPa WSW 5.1 km/h 10.3 km/h 66 % 0 mm
01:20 -9.8 °C -13.4 °C 34222.3 hPa WSW 5.1 km/h 10.3 km/h 65 % 0 mm
01:30 -9.9 °C -13.5 °C 34256.2 hPa WSW 5.1 km/h 7.7 km/h 65 % 0 mm
01:40 -10.1 °C -13.7 °C 34256.2 hPa WSW 5.1 km/h 5.1 km/h 65 % 0 mm
01:50 -10.2 °C -13.7 °C 34256.2 hPa SW 5.1 km/h 7.7 km/h 66 % 0 mm
02:10 -10 °C -13.5 °C 34256.2 hPa WSW 5.1 km/h 10.3 km/h 66 % 0 mm
02:20 -10 °C -13.5 °C 34293.4 hPa WSW 7.7 km/h 7.7 km/h 66 % 0 mm
02:30 -10 °C -13.5 °C 34256.2 hPa SW 7.7 km/h 12.9 km/h 66 % 0 mm
02:40 -9.9 °C -13.4 °C 34256.2 hPa SW 7.7 km/h 15.6 km/h 66 % 0 mm
02:50 -9.9 °C -13.4 °C 34256.2 hPa SW 7.7 km/h 10.3 km/h 66 % 0 mm
03:00 -9.8 °C -13.4 °C 34256.2 hPa SW 7.7 km/h 10.3 km/h 65 % 0 mm
03:10 -9.8 °C -13.6 °C 34256.2 hPa SW 5.1 km/h 10.3 km/h 64 % 0 mm
03:20 -9.8 °C -13.6 °C 34256.2 hPa SW 7.7 km/h 10.3 km/h 64 % 0 mm
03:30 -9.7 °C -13.4 °C 34256.2 hPa WSW 7.7 km/h 10.3 km/h 64 % 0 mm
03:50 -9.2 °C -13.1 °C 34293.4 hPa SW 7.7 km/h 12.9 km/h 63 % 0 mm
04:00 -8.9 °C -13.1 °C 34293.4 hPa SW 12.9 km/h 12.9 km/h 61 % 0 mm
04:10 -8.7 °C -13.1 °C 34293.4 hPa WSW 7.7 km/h 12.9 km/h 59 % 0 mm
04:30 -8.2 °C -13.2 °C 34293.4 hPa WSW 7.7 km/h 12.9 km/h 55 % 0 mm
04:40 -8 °C -13.2 °C 34293.4 hPa WSW 5.1 km/h 12.9 km/h 54 % 0 mm
04:50 -7.9 °C -13.5 °C 34293.4 hPa WSW 7.7 km/h 18.2 km/h 52 % 0 mm
05:00 -7.6 °C -13.1 °C 34293.4 hPa West 7.7 km/h 10.3 km/h 52 % 0 mm
05:10 -7.3 °C -12.9 °C 34293.4 hPa WSW 7.7 km/h 12.9 km/h 52 % 0 mm
05:20 -7.2 °C -13.2 °C 34293.4 hPa WSW 7.7 km/h 23.3 km/h 50 % 0 mm
05:30 -7.4 °C -13.2 °C 34293.4 hPa WSW 12.9 km/h 12.9 km/h 51 % 0 mm
05:40 -7.2 °C -13.2 °C 34293.4 hPa West 5.1 km/h 20.8 km/h 50 % 0 mm
05:50 -6.9 °C -13.1 °C 34327.3 hPa WSW 7.7 km/h 20.8 km/h 49 % 0 mm
06:00 -6.8 °C -12.9 °C 34327.3 hPa WSW 15.6 km/h 25.9 km/h 49 % 0 mm
06:10 -6.6 °C -12.9 °C 34327.3 hPa WSW 15.6 km/h 18.2 km/h 48 % 0 mm
06:20 -6.4 °C -12.7 °C 34327.3 hPa WSW 7.7 km/h 23.3 km/h 48 % 0 mm
06:30 -6.3 °C -12.8 °C 34327.3 hPa West 7.7 km/h 15.6 km/h 47 % 0 mm
06:40 -6.3 °C -12.8 °C 34327.3 hPa West 7.7 km/h 20.8 km/h 47 % 0 mm
11:45 -6.3 °C -12.8 °C 34327.3 hPa WNW 12.7 km/h 12.7 km/h 47 % 0 mm
11:50 -6 °C -12.7 °C 34327.3 hPa South 15 km/h 15 km/h 46 % 0 mm
11:55 -5.7 °C -12.7 °C 34327.3 hPa SW 17.9 km/h 17.9 km/h 45 % 0 mm
12:00 -5.6 °C -12.6 °C 34327.3 hPa WSW 17.9 km/h 17.9 km/h 45 % 0 mm
12:05 -5.5 °C -12.6 °C 34327.3 hPa North 11.9 km/h 11.9 km/h 44 % 0 mm
12:10 -5.7 °C -12.9 °C 34327.3 hPa WSW 17.9 km/h 17.9 km/h 43 % 0 mm
12:15 -5.6 °C -12.9 °C 34327.3 hPa NNW 25.4 km/h 25.4 km/h 43 % 0 mm
12:20 -5.6 °C -12.9 °C 34327.3 hPa SW 16.1 km/h 16.1 km/h 43 % 0 mm
12:25 -5.7 °C -12.9 °C 34327.3 hPa SW 15 km/h 15 km/h 43 % 0 mm
12:30 -5.7 °C -13 °C 34327.3 hPa SW 33.6 km/h 33.6 km/h 43 % 0 mm
12:35 -5.8 °C -13.1 °C 34327.3 hPa WSW 20.9 km/h 20.9 km/h 43 % 0 mm
12:40 -5.9 °C -13.2 °C 34327.3 hPa WSW 17.9 km/h 17.9 km/h 43 % 0 mm
12:45 -5.6 °C -12.9 °C 34327.3 hPa NW 11.9 km/h 11.9 km/h 43 % 0 mm
12:50 -5.5 °C -13 °C 34327.3 hPa ENE 11.9 km/h 11.9 km/h 42 % 0 mm
12:55 -5.5 °C -13 °C 34327.3 hPa West 26.9 km/h 26.9 km/h 42 % 0 mm
13:00 -5.5 °C -13.2 °C 34327.3 hPa WSW 20.9 km/h 20.9 km/h 41 % 0 mm
13:05 -5.2 °C -12.7 °C 34327.3 hPa South 11.9 km/h 11.9 km/h 42 % 0 mm
13:10 -5.1 °C -12.9 °C 34327.3 hPa East 9 km/h 9 km/h 41 % 0 mm
13:15 -5.2 °C -13.1 °C 34327.3 hPa West 26.9 km/h 26.9 km/h 40 % 0 mm
13:20 -5.2 °C -13.2 °C 34327.3 hPa SW 11.9 km/h 11.9 km/h 40 % 0 mm
13:25 -4.9 °C -12.9 °C 34327.3 hPa SW 15 km/h 15 km/h 40 % 0 mm
13:30 -4.9 °C -13.1 °C 34293.4 hPa NNW 15 km/h 15 km/h 39 % 0 mm
13:35 -5.1 °C -13.1 °C 34293.4 hPa West 15 km/h 15 km/h 40 % 0 mm
13:40 -4.9 °C -13.1 °C 34293.4 hPa WNW 23.8 km/h 23.8 km/h 39 % 0 mm
13:45 -4.7 °C -12.9 °C 34293.4 hPa West 17.9 km/h 17.9 km/h 39 % 0 mm
13:50 -4.7 °C -13.1 °C 34293.4 hPa WSW 11.9 km/h 11.9 km/h 38 % 0 mm
13:55 -4.9 °C -13.6 °C 34293.4 hPa South 23.8 km/h 23.8 km/h 37 % 0 mm
14:00 -5 °C -13.6 °C 34293.4 hPa WNW 17.9 km/h 17.9 km/h 37 % 0 mm
14:05 -4.8 °C -13.4 °C 34293.4 hPa WSW 9 km/h 10.3 km/h 37 % 0 mm
14:10 -4.9 °C -13.8 °C 34293.4 hPa WNW 15 km/h 15 km/h 36 % 0 mm
14:15 -4.8 °C -13.7 °C 34327.3 hPa WSW 20.9 km/h 20.9 km/h 36 % 0 mm
14:20 -4.8 °C -13.6 °C 34327.3 hPa WSW 20.9 km/h 20.9 km/h 36 % 0 mm
14:30 -4.7 °C -14 °C 34293.4 hPa West 26.9 km/h 26.9 km/h 34 % 0 mm
14:35 -4.7 °C -14.3 °C 34293.4 hPa WSW 23.8 km/h 23.8 km/h 33 % 0 mm
14:40 -4.6 °C -14.2 °C 34293.4 hPa ENE 15 km/h 15 km/h 33 % 0 mm
14:45 -4.6 °C -14.1 °C 34327.3 hPa WSW 20.9 km/h 20.9 km/h 33 % 0 mm
14:50 -4.6 °C -14.4 °C 34327.3 hPa WSW 17.9 km/h 17.9 km/h 32 % 0 mm
14:55 -4.6 °C -14.4 °C 34327.3 hPa WSW 16.1 km/h 16.1 km/h 32 % 0 mm
15:00 -4.7 °C -14.7 °C 34293.4 hPa West 20.9 km/h 20.9 km/h 31 % 0 mm
15:05 -4.6 °C -14.7 °C 34293.4 hPa South 23.8 km/h 23.8 km/h 31 % 0 mm
15:10 -4.7 °C -14.7 °C 34293.4 hPa WNW 15 km/h 15 km/h 31 % 0 mm
15:15 -4.7 °C -14.7 °C 34293.4 hPa South 15 km/h 15 km/h 31 % 0 mm
15:20 -4.7 °C -14.8 °C 34293.4 hPa ESE 15 km/h 15 km/h 31 % 0 mm
15:25 -4.6 °C -14.7 °C 34293.4 hPa SSW 19.6 km/h 19.6 km/h 31 % 0 mm
15:30 -4.7 °C -15 °C 34293.4 hPa WNW 23.8 km/h 23.8 km/h 30 % 0 mm
15:35 -4.7 °C -15 °C 34293.4 hPa West 26.9 km/h 26.9 km/h 30 % 0 mm
15:40 -4.7 °C -15.1 °C 34293.4 hPa SSW 35.7 km/h 35.7 km/h 30 % 0 mm
15:45 -4.6 °C -14.6 °C 34293.4 hPa West 9.3 km/h 9.3 km/h 31 % 0 mm
15:50 -4.8 °C -14.8 °C 34293.4 hPa ENE 15 km/h 15 km/h 31 % 0 mm
15:55 -4.6 °C -14.9 °C 34293.4 hPa WSW 29.8 km/h 29.8 km/h 30 % 0 mm
16:00 -4.6 °C -15.2 °C 34293.4 hPa SW 20.9 km/h 20.9 km/h 29 % 0 mm
16:05 -4.6 °C -14.9 °C 34293.4 hPa NNW 15 km/h 15 km/h 30 % 0 mm
16:15 -4.3 °C -14.7 °C 34293.4 hPa WSW 20.9 km/h 20.9 km/h 30 % 0 mm
16:20 -4.8 °C -15.1 °C 34293.4 hPa NNE 15 km/h 15 km/h 30 % 0 mm
16:25 -4.9 °C -15.2 °C 34293.4 hPa WNW 15.6 km/h 15.6 km/h 30 % 0 mm
16:30 -5 °C -15.6 °C 34293.4 hPa WSW 23.8 km/h 23.8 km/h 29 % 0 mm
16:35 -5.1 °C -15.3 °C 34293.4 hPa NW 20.9 km/h 20.9 km/h 30 % 0 mm
16:40 -5.2 °C -15.5 °C 34293.4 hPa WSW 17.9 km/h 17.9 km/h 30 % 0 mm
16:45 -5.2 °C -15.4 °C 34293.4 hPa WSW 9.8 km/h 9.8 km/h 30 % 0 mm
16:50 -5.3 °C -15.5 °C 34293.4 hPa West 11.9 km/h 11.9 km/h 30 % 0 mm
16:55 -5.5 °C -15.7 °C 34293.4 hPa West 17.9 km/h 17.9 km/h 30 % 0 mm
17:00 -5.2 °C -15.5 °C 34293.4 hPa WSW 23.8 km/h 23.8 km/h 30 % 0 mm
17:05 -4.7 °C -15.3 °C 34293.4 hPa WSW 15 km/h 15 km/h 29 % 0 mm
17:15 -4.7 °C -15.3 °C 34293.4 hPa NNE 11.9 km/h 11.9 km/h 29 % 0 mm
17:20 -4.6 °C -15.2 °C 34293.4 hPa SW 20.9 km/h 20.9 km/h 29 % 0 mm
17:25 -4.6 °C -15.5 °C 34293.4 hPa NW 20.9 km/h 20.9 km/h 28 % 0 mm
17:30 -4.5 °C -15.4 °C 34293.4 hPa WNW 20.3 km/h 20.3 km/h 28 % 0 mm
17:35 -4.7 °C -15.6 °C 34293.4 hPa West 17.9 km/h 17.9 km/h 28 % 0 mm
17:40 -4.6 °C -15.5 °C 34293.4 hPa WSW 15.6 km/h 20.8 km/h 28 % 0 mm
17:45 -4.6 °C -15.5 °C 34293.4 hPa WSW 23.8 km/h 23.8 km/h 28 % 0 mm
17:50 -4.6 °C -15.5 °C 34293.4 hPa NNW 15 km/h 15 km/h 28 % 0 mm
17:55 -4.7 °C -15.6 °C 34293.4 hPa West 20.9 km/h 20.9 km/h 28 % 0 mm
18:05 -4.7 °C -15.6 °C 34293.4 hPa West 5.1 km/h 23.3 km/h 28 % 0 mm
18:10 -4.8 °C -16 °C 34293.4 hPa NW 20.9 km/h 20.9 km/h 27 % 0 mm
18:15 -4.9 °C -16 °C 34293.4 hPa West 14 km/h 14 km/h 27 % 0 mm
18:20 -4.9 °C -16.1 °C 34293.4 hPa WSW 20.9 km/h 20.9 km/h 27 % 0 mm
18:25 -5.1 °C -15.9 °C 34293.4 hPa WSW 15 km/h 15 km/h 28 % 0 mm
18:30 -4.9 °C -16.1 °C 34293.4 hPa West 12.2 km/h 12.2 km/h 27 % 0 mm
18:35 -4.9 °C -16.1 °C 34293.4 hPa WSW 15 km/h 15 km/h 27 % 0 mm
18:45 -5.1 °C -15.9 °C 34327.3 hPa WSW 15 km/h 15 km/h 28 % 0 mm
18:50 -5.1 °C -15.9 °C 34327.3 hPa WNW 11.9 km/h 11.9 km/h 28 % 0 mm
18:55 -5.1 °C -15.9 °C 34327.3 hPa WSW 17.9 km/h 17.9 km/h 28 % 0 mm
19:00 -5.2 °C -16 °C 34327.3 hPa WSW 11.9 km/h 11.9 km/h 28 % 0 mm
19:05 -5.2 °C -16 °C 34327.3 hPa SW 11.9 km/h 11.9 km/h 28 % 0 mm
19:10 -5.3 °C -16.1 °C 34327.3 hPa WSW 11.1 km/h 11.1 km/h 28 % 0 mm
19:15 -5.4 °C -16.2 °C 34327.3 hPa WNW 15 km/h 15 km/h 28 % 0 mm
19:20 -5.7 °C -16.4 °C 34327.3 hPa NNW 20.9 km/h 20.9 km/h 28 % 0 mm
19:25 -5.8 °C -16.5 °C 34327.3 hPa WSW 14.5 km/h 14.5 km/h 28 % 0 mm
19:30 -5.8 °C -16.6 °C 34327.3 hPa WSW 5.1 km/h 18.2 km/h 28 % 0 mm
19:35 -5.9 °C -16.6 °C 34327.3 hPa SW 19.6 km/h 19.6 km/h 28 % 0 mm
19:40 -6 °C -16.7 °C 34327.3 hPa WSW 23.8 km/h 23.8 km/h 28 % 0 mm
19:45 -6.1 °C -16.8 °C 34327.3 hPa WSW 15.6 km/h 23.3 km/h 28 % 0 mm
19:50 -6.1 °C -16.8 °C 34327.3 hPa WSW 15.6 km/h 23.3 km/h 28 % 0 mm
19:55 -6.2 °C -16.6 °C 34327.3 hPa West 7.7 km/h 23.3 km/h 29 % 0 mm
20:00 -6.2 °C -16.9 °C 34327.3 hPa NW 7.7 km/h 7.7 km/h 28 % 0 mm
20:05 -6.3 °C -16.9 °C 34327.3 hPa NW 7.7 km/h 18.2 km/h 28 % 0 mm
20:10 -6.4 °C -17.1 °C 34327.3 hPa WNW 15 km/h 15 km/h 28 % 0 mm
20:15 -6.4 °C -16.8 °C 34327.3 hPa West 12.9 km/h 15.6 km/h 29 % 0 mm
20:20 -6.6 °C -16.9 °C 34327.3 hPa SW 6.8 km/h 6.8 km/h 29 % 0 mm
20:25 -6.6 °C -16.9 °C 34327.3 hPa SW 5.1 km/h 7.7 km/h 29 % 0 mm
20:30 -6.7 °C -16.8 °C 34347.6 hPa WSW 5.1 km/h 10.3 km/h 30 % 0 mm
20:35 -6.8 °C -16.9 °C 34361.1 hPa WSW 9 km/h 9 km/h 30 % 0 mm
20:40 -6.9 °C -16.9 °C 34361.1 hPa WSW 5.1 km/h 10.3 km/h 30 % 0 mm
20:45 -7 °C -17 °C 34361.1 hPa WSW 5.1 km/h 10.3 km/h 30 % 0 mm
20:50 -7.1 °C -17.1 °C 34361.1 hPa WSW 5.1 km/h 12.9 km/h 30 % 0 mm
20:55 -7.1 °C -17.1 °C 34361.1 hPa WSW 6.3 km/h 6.3 km/h 30 % 0 mm
21:00 -7.2 °C -17.2 °C 34361.1 hPa SW 6.3 km/h 6.3 km/h 30 % 0 mm
21:05 -7.2 °C -17.2 °C 34361.1 hPa WSW 9 km/h 9 km/h 30 % 0 mm
21:10 -7.3 °C -17.3 °C 34361.1 hPa Calm   12.9 km/h 30 % 0 mm
21:15 -7.4 °C -17.3 °C 34395 hPa SW 6 km/h 6 km/h 30 % 0 mm
21:20 -7.5 °C -17.2 °C 34395 hPa Calm   5.1 km/h 31 % 0 mm
21:25 -7.7 °C -17.3 °C 34395 hPa Calm   5.1 km/h 31 % 0 mm
21:30 -7.8 °C -17.4 °C 34395 hPa WSW 5.1 km/h 7.7 km/h 31 % 0 mm
21:35 -7.9 °C -17.3 °C 34395 hPa WSW 5.1 km/h 7.7 km/h 32 % 0 mm
21:40 -7.9 °C -17.4 °C 34395 hPa WSW 2.6 km/h 2.6 km/h 32 % 0 mm
21:45 -8 °C -17.4 °C 34395 hPa SW 5.1 km/h 5.1 km/h 32 % 0 mm
21:50 -8.1 °C -17.4 °C 34395 hPa SW 2.6 km/h 5.1 km/h 32 % 0 mm
21:55 -8.2 °C -17.3 °C 34395 hPa WSW 3.1 km/h   33 % 0 mm
22:00 -8.3 °C -17.4 °C 34428.8 hPa Calm     33 % 0 mm
22:05 -8.3 °C -17.2 °C 34428.8 hPa WSW 3.1 km/h 3.1 km/h 34 % 0 mm
22:10 -8.3 °C -17 °C 34428.8 hPa Calm     35 % 0 mm
22:15 -8.4 °C -17.1 °C 34428.8 hPa ENE 7.7 km/h 15.6 km/h 35 % 0 mm
22:20 -8.7 °C -16.9 °C 34428.8 hPa ENE 7.7 km/h 20.8 km/h 37 % 0 mm
22:25 -8.9 °C -16.3 °C 34428.8 hPa ENE 15.6 km/h 20.8 km/h 41 % 0 mm
22:30 -11 °C -14.4 °C 34496.6 hPa ENE 2.6 km/h 5.1 km/h 66 % 0 mm
22:35 -9.1 °C -15.4 °C 34462.7 hPa ENE 15.6 km/h 20.8 km/h 47 % 0 mm
22:40 -9.2 °C -15.3 °C 34462.7 hPa East 23.8 km/h 23.8 km/h 48 % 0 mm
22:45 -9.2 °C -15.2 °C 34462.7 hPa ENE 11.9 km/h 11.9 km/h 49 % 0 mm
22:50 -9.3 °C -15.1 °C 34462.7 hPa ESE 15 km/h 15 km/h 50 % 0 mm
22:55 -9.3 °C -15.1 °C 34462.7 hPa ESE 15 km/h 15 km/h 50 % 0 mm
23:00 -9.4 °C -14.9 °C 34462.7 hPa ENE 14 km/h 14 km/h 51 % 0 mm
23:05 -9.4 °C -15.1 °C 34462.7 hPa ENE 15 km/h 15 km/h 51 % 0 mm
23:10 -9.4 °C -15.1 °C 34462.7 hPa ENE 14.5 km/h 14.5 km/h 51 % 0 mm
23:15 -9.5 °C -15.1 °C 34462.7 hPa East 15 km/h 15 km/h 51 % 0 mm
23:25 -9.6 °C -14.9 °C 34462.7 hPa ENE 11.9 km/h 11.9 km/h 52 % 0 mm
23:30 -9.6 °C -15 °C 34462.7 hPa ENE 5.1 km/h 12.9 km/h 52 % 0 mm
23:35 -9.6 °C -15.1 °C 34462.7 hPa ENE 9.3 km/h 9.3 km/h 52 % 0 mm
23:40 -9.7 °C -15.1 °C 34462.7 hPa East 9 km/h 9 km/h 52 % 0 mm
23:45 -9.7 °C -15 °C 34462.7 hPa NNE 9 km/h 9 km/h 53 % 0 mm
23:50 -9.8 °C -15.1 °C 34462.7 hPa NE 9 km/h 9 km/h 53 % 0 mm
23:55 -9.8 °C -14.9 °C 34462.7 hPa ENE 11.9 km/h 11.9 km/h 54 % 0 mm
Meteo Sesrovires
Elogis d' Weather Underground - 1.5 mb

Guio original per  Jim McMurry - jmcmurry@mwt.net Adaptat per a la plantilla per  Wim van der Kuil - Leuven-Template.eu

Trobareu la nostra informacio del temps tambe a:

Weather Underground

AWEKAS